Time;durP1;ratioP1;P1;durP2;ratioP2;P2;SDS_P1;SDS_P2;PMS_P1;PMS_P2;Temp;Humidity;BMP_temperature;BMP_pressure;BME280_temperature;BME280_humidity;BME280_pressure;Samples;Min_cycle;Max_cycle;Signal;HPM_P1;HPM_P2
2023/04/30 03:47:57;;;;;;;10.20;9.18;;;16.00;99.90;;;;;;6292413;22;20055;-94
2023/04/30 03:50:24;;;;;;;11.48;8.98;;;15.90;99.90;;;;;;6257048;22;20015;-91
2023/04/30 03:52:51;;;;;;;9.85;8.43;;;15.90;99.90;;;;;;6263098;22;19999;-92
2023/04/30 03:55:17;;;;;;;9.95;8.95;;;15.90;99.90;;;;;;6258704;22;19999;-93
2023/04/30 03:57:45;;;;;;;13.88;9.15;;;15.90;99.90;;;;;;6226405;22;20337;-93
2023/04/30 04:00:15;;;;;;;12.52;9.07;;;15.90;99.90;;;;;;6252084;22;20034;-92
2023/04/30 04:02:47;;;;;;;11.25;9.00;;;15.90;99.90;;;;;;6251429;22;20011;-92
2023/04/30 04:05:15;;;;;;;11.88;7.97;;;15.80;99.90;;;;;;6251547;22;20393;-93
2023/04/30 04:07:44;;;;;;;14.45;8.15;;;15.80;99.90;;;;;;6226411;22;20083;-93
2023/04/30 04:10:11;;;;;;;11.52;8.43;;;15.80;99.90;;;;;;6226707;22;20015;-93
2023/04/30 04:12:38;;;;;;;11.93;8.30;;;15.80;99.90;;;;;;6226616;22;20449;-94
2023/04/30 04:15:05;;;;;;;15.45;8.48;;;15.80;99.90;;;;;;6251642;22;20340;-94
2023/04/30 04:17:32;;;;;;;13.25;7.93;;;15.80;99.90;;;;;;6226352;22;20011;-93
2023/04/30 04:19:58;;;;;;;8.70;7.50;;;15.70;99.90;;;;;;6226636;22;20003;-93
2023/04/30 04:22:25;;;;;;;14.18;8.50;;;15.70;99.90;;;;;;6225995;22;20003;-92
2023/04/30 04:24:54;;;;;;;10.77;7.40;;;15.60;99.90;;;;;;6226357;22;20382;-93
2023/04/30 04:27:24;;;;;;;8.40;7.40;;;15.60;99.90;;;;;;6226687;22;20008;-93
2023/04/30 04:29:51;;;;;;;12.95;8.07;;;15.60;99.90;;;;;;6251766;22;20011;-94
2023/04/30 04:32:18;;;;;;;12.52;7.72;;;15.60;99.90;;;;;;6226911;22;20018;-93
2023/04/30 04:34:44;;;;;;;13.07;7.70;;;15.60;99.90;;;;;;6276741;22;20007;-94
2023/04/30 04:37:16;;;;;;;15.13;8.27;;;15.50;99.90;;;;;;6225956;22;20011;-92
2023/04/30 04:39:43;;;;;;;9.45;7.13;;;15.60;99.90;;;;;;6226349;22;20112;-93
2023/04/30 04:42:11;;;;;;;14.57;8.57;;;15.60;99.90;;;;;;6226127;22;20011;-93
2023/04/30 04:44:38;;;;;;;15.38;8.45;;;15.60;99.90;;;;;;6251453;22;20094;-93
2023/04/30 04:47:05;;;;;;;13.80;8.27;;;15.60;99.90;;;;;;6226197;22;20004;-93
2023/04/30 04:49:31;;;;;;;13.23;7.90;;;15.60;99.90;;;;;;6226344;22;20069;-91
2023/04/30 04:51:58;;;;;;;14.10;8.02;;;15.50;99.90;;;;;;6227093;22;20437;-93
2023/04/30 04:54:25;;;;;;;11.93;8.35;;;15.50;99.90;;;;;;6252290;22;20004;-92
2023/04/30 04:56:51;;;;;;;12.45;8.25;;;15.60;99.90;;;;;;6226384;22;20004;-92
2023/04/30 04:59:18;;;;;;;11.63;7.72;;;15.60;99.90;;;;;;6251350;22;20023;-93
2023/04/30 05:01:50;;;;;;;13.30;7.82;;;15.60;99.90;;;;;;6226623;22;20409;-92
2023/04/30 05:04:19;;;;;;;10.05;7.57;;;15.60;99.90;;;;;;6251605;22;20014;-94
2023/04/30 05:07:19;;;;;;;13.73;7.85;;;15.70;99.90;;;;;;6235627;22;20007;-94
2023/04/30 05:09:46;;;;;;;18.33;7.93;;;15.80;99.90;;;;;;6232854;22;20008;-92
2023/04/30 05:12:13;;;;;;;13.68;7.97;;;15.80;99.90;;;;;;6226080;22;20015;-93
2023/04/30 05:14:49;;;;;;;11.57;7.45;;;15.80;99.90;;;;;;6226328;22;20030;-93
2023/04/30 05:17:19;;;;;;;12.43;8.02;;;15.80;99.90;;;;;;6260086;22;20004;-94
2023/04/30 05:20:00;;;;;;;32.55;9.35;;;15.80;99.90;;;;;;6232509;22;20000;-93
2023/04/30 18:43:47;;;;;;;15.88;14.60;;;15.90;99.90;;;;;;6295795;22;20160;-93
2023/04/30 18:49:12;;;;;;;16.25;15.23;;;15.80;99.90;;;;;;6282033;22;20037;-92
2023/04/30 18:51:49;;;;;;;;;;;;;;;;;;;;;
2023/04/30 18:55:05;;;;;;;15.60;14.45;;;15.80;99.90;;;;;;6271607;22;20495;-93
2023/04/30 18:57:49;;;;;;;;;;;;;;;;;;;;;
2023/04/30 19:00:29;;;;;;;14.77;13.93;;;15.80;99.90;;;;;;6252854;22;20036;-94
2023/04/30 19:02:56;;;;;;;14.25;13.43;;;15.80;99.90;;;;;;6251130;22;20009;-93
2023/04/30 19:05:23;;;;;;;14.27;13.38;;;15.80;99.90;;;;;;6225362;22;20008;-92
2023/04/30 19:07:49;;;;;;;14.05;13.15;;;15.80;99.90;;;;;;6250734;22;20086;-91
2023/04/30 19:14:07;;;;;;;13.20;12.40;;;15.70;99.90;;;;;;6295003;22;20116;-93
2023/04/30 19:16:34;;;;;;;13.48;12.32;;;15.80;99.90;;;;;;6227235;22;20016;-93
2023/04/30 19:19:04;;;;;;;13.20;12.07;;;15.80;99.90;;;;;;6225507;22;20087;-91
2023/04/30 19:21:33;;;;;;;12.70;11.90;;;15.80;99.90;;;;;;6226598;22;20007;-91
2023/04/30 19:24:06;;;;;;;12.77;11.75;;;15.80;99.90;;;;;;6221884;23;20049;-93
2023/04/30 19:26:41;;;;;;;13.10;12.25;;;15.70;99.90;;;;;;6246895;23;20407;-92
2023/04/30 19:29:33;;;;;;;12.32;11.63;;;15.70;99.90;;;;;;6257635;22;20064;-94
2023/04/30 19:32:02;;;;;;;12.40;11.70;;;15.70;99.90;;;;;;6274075;22;20015;-92
2023/04/30 19:34:28;;;;;;;12.35;11.60;;;15.70;99.90;;;;;;6221794;23;20004;-92
2023/04/30 19:36:55;;;;;;;12.68;11.70;;;15.70;99.90;;;;;;6196610;23;20499;-92
2023/04/30 19:39:21;;;;;;;11.98;11.18;;;15.70;99.90;;;;;;6196481;23;20004;-92
2023/04/30 19:41:48;;;;;;;10.88;10.27;;;15.60;99.90;;;;;;6222168;23;20012;-92
2023/04/30 19:44:17;;;;;;;11.13;10.32;;;15.60;99.90;;;;;;6196391;23;20008;-90
2023/04/30 19:46:43;;;;;;;11.32;10.32;;;15.60;99.90;;;;;;6196280;23;20000;-91
2023/04/30 19:49:09;;;;;;;11.18;10.32;;;15.50;99.90;;;;;;6196320;23;20091;-92
2023/04/30 19:51:36;;;;;;;11.07;10.20;;;15.50;99.90;;;;;;6196348;23;20008;-91
2023/04/30 19:54:02;;;;;;;10.77;9.80;;;15.50;99.90;;;;;;6196425;23;20012;-91
2023/04/30 19:56:30;;;;;;;10.65;9.70;;;15.50;99.90;;;;;;6217273;23;19988;-91
2023/04/30 19:58:57;;;;;;;10.15;9.40;;;15.50;99.90;;;;;;6196157;23;20012;-91
2023/04/30 20:01:24;;;;;;;10.02;9.23;;;15.50;99.90;;;;;;6213557;23;20004;-92
2023/04/30 20:03:51;;;;;;;23.83;14.30;;;15.50;99.90;;;;;;6223241;23;20012;-91
2023/04/30 20:06:20;;;;;;;12.25;10.77;;;15.50;99.90;;;;;;6199894;23;19997;-93
2023/04/30 20:08:58;;;;;;;9.98;9.07;;;15.50;99.90;;;;;;6199638;23;20012;-91
2023/04/30 20:11:24;;;;;;;9.65;8.65;;;15.60;99.90;;;;;;6214868;23;20087;-92
2023/04/30 20:13:51;;;;;;;9.38;8.68;;;15.60;99.90;;;;;;6194272;23;20010;-92
2023/04/30 20:16:18;;;;;;;9.15;8.45;;;15.70;99.90;;;;;;6213120;23;20031;-92
2023/04/30 20:18:45;;;;;;;8.98;8.30;;;15.70;99.90;;;;;;6205944;23;20005;-91
2023/04/30 20:21:11;;;;;;;9.63;8.52;;;15.70;99.90;;;;;;6197446;23;20016;-93
2023/04/30 20:23:40;;;;;;;9.40;8.60;;;15.80;99.90;;;;;;6196575;22;20004;-91
2023/04/30 20:26:08;;;;;;;9.80;8.90;;;15.80;99.90;;;;;;6211265;23;20008;-93
2023/04/30 20:28:34;;;;;;;9.10;8.50;;;15.80;99.90;;;;;;6221827;23;20004;-91
2023/04/30 20:31:01;;;;;;;9.05;8.18;;;15.70;99.90;;;;;;6202426;22;20023;-91
2023/04/30 20:33:27;;;;;;;7.93;7.43;;;15.70;99.90;;;;;;6227154;22;20083;-91
2023/04/30 20:35:56;;;;;;;8.02;7.53;;;15.70;99.90;;;;;;6227229;22;20011;-90
2023/04/30 20:38:23;;;;;;;7.85;7.28;;;15.60;99.90;;;;;;6227108;22;20090;-90
2023/04/30 20:40:49;;;;;;;7.80;7.25;;;15.60;99.90;;;;;;6227061;22;20484;-91
2023/04/30 20:43:16;;;;;;;8.20;7.50;;;15.60;99.90;;;;;;6226284;22;20004;-92
2023/04/30 20:45:45;;;;;;;7.38;6.70;;;15.60;99.90;;;;;;6225681;22;20007;-91
2023/04/30 20:48:12;;;;;;;7.32;6.65;;;15.60;99.90;;;;;;6226361;22;20014;-93
2023/04/30 20:50:49;;;;;;;7.50;6.85;;;15.70;99.90;;;;;;6226375;22;20440;-93
2023/04/30 20:53:39;;;;;;;7.72;6.97;;;15.60;99.90;;;;;;6226532;22;20353;-92
2023/04/30 20:56:08;;;;;;;7.05;6.40;;;15.60;99.90;;;;;;6231391;22;20456;-93
2023/04/30 20:59:20;;;;;;;10.02;6.85;;;15.60;99.90;;;;;;6228509;22;20011;-96
2023/04/30 21:09:45;;;;;;;;;;;;;;;;;;;;;
2023/04/30 21:13:27;;;;;;;7.32;6.68;;;15.50;99.90;;;;;;5982238;23;20016;-92
2023/04/30 21:21:13;;;;;;;;;;;;;;;;;;;;;
2023/04/30 21:26:59;;;;;;;18.77;11.10;;;15.50;99.90;;;;;;6282584;22;20461;-93
2023/04/30 21:30:19;;;;;;;17.20;9.75;;;15.50;99.90;;;;;;6230839;22;20433;-93
2023/04/30 21:32:49;;;;;;;10.63;7.70;;;15.50;99.90;;;;;;6137262;23;20324;-92
2023/04/30 21:42:20;;;;;;;10.63;6.90;;;15.60;99.90;;;;;;6215613;23;20031;-94
2023/04/30 21:58:35;;;;;;;7.47;6.68;;;15.60;99.90;;;;;;6215708;23;20088;-92
2023/04/30 22:01:03;;;;;;;6.53;5.57;;;15.60;99.90;;;;;;6190317;23;20438;-94
2023/04/30 22:03:33;;;;;;;7.10;6.50;;;15.70;99.90;;;;;;6190144;23;20135;-94
2023/04/30 22:06:00;;;;;;;7.60;6.40;;;15.60;99.90;;;;;;6189468;23;20008;-93
2023/04/30 22:08:26;;;;;;;7.70;6.78;;;15.60;99.90;;;;;;6189881;23;20012;-93
